createdAt,value
2023-04-25T00:01:16.562Z,13.23
2023-04-25T00:04:18.320Z,13.26
2023-04-25T00:07:20.365Z,13.11
2023-04-25T00:10:22.029Z,13.02
2023-04-25T00:13:23.875Z,13.04
2023-04-25T00:16:25.677Z,12.98
2023-04-25T00:19:29.343Z,12.91
2023-04-25T00:22:30.948Z,12.78
2023-04-25T00:25:32.498Z,12.81
2023-04-25T00:28:34.003Z,12.85
2023-04-25T00:31:35.617Z,12.90
2023-04-25T00:34:37.177Z,12.85
2023-04-25T00:37:39.148Z,12.92
2023-04-25T00:40:40.633Z,12.90
2023-04-25T00:43:42.639Z,12.86
2023-04-25T00:46:44.716Z,12.78
2023-04-25T00:49:46.202Z,12.77
2023-04-25T00:52:47.810Z,12.76
2023-04-25T00:55:51.713Z,12.73
2023-04-25T00:58:57.391Z,12.61
2023-04-25T01:01:59.687Z,12.44
2023-04-25T01:05:01.932Z,12.30
2023-04-25T01:08:03.426Z,12.22
2023-04-25T01:11:05.571Z,12.17
2023-04-25T01:14:07.372Z,12.08
2023-04-25T01:17:09.991Z,12.04
2023-04-25T01:20:12.698Z,11.97
2023-04-25T01:23:15.338Z,11.91
2023-04-25T01:26:17.310Z,11.85
2023-04-25T01:29:19.887Z,11.70
2023-04-25T01:32:23.937Z,11.70
2023-04-25T01:35:25.986Z,11.60
2023-04-25T01:38:29.339Z,11.38
2023-04-25T01:41:30.919Z,11.26
2023-04-25T01:44:32.435Z,11.05
2023-04-25T01:47:36.174Z,10.92
2023-04-25T01:50:39.430Z,11.04
2023-04-25T01:53:41.109Z,11.16
2023-04-25T01:56:43.243Z,11.26
2023-04-25T01:59:47.239Z,11.27
2023-04-25T02:03:08.065Z,11.34
2023-04-25T02:06:09.806Z,11.42
2023-04-25T02:09:14.660Z,11.43
2023-04-25T02:12:21.112Z,11.39
2023-04-25T02:15:39.713Z,11.39
2023-04-25T02:18:53.633Z,11.39
2023-04-25T02:21:55.567Z,11.34
2023-04-25T02:24:57.031Z,11.34
2023-04-25T02:27:58.526Z,11.32
2023-04-25T02:30:59.999Z,11.21
2023-04-25T02:34:01.539Z,11.18
2023-04-25T02:37:03.188Z,11.18
2023-04-25T02:40:05.481Z,11.20
2023-04-25T02:43:07.986Z,11.20
2023-04-25T02:46:09.520Z,11.11
2023-04-25T02:49:11.037Z,11.03
2023-04-25T02:52:13.228Z,11.07
2023-04-25T02:55:15.432Z,11.10
2023-04-25T02:58:18.605Z,11.10
2023-04-25T03:01:23.815Z,11.14
2023-04-25T03:04:25.772Z,11.18
2023-04-25T03:07:27.351Z,11.24
2023-04-25T03:10:28.855Z,11.19
2023-04-25T03:13:33.929Z,11.27
2023-04-25T03:16:35.518Z,11.27
2023-04-25T03:19:37.023Z,11.18
2023-04-25T03:22:38.795Z,11.23
2023-04-25T03:25:40.249Z,11.26
2023-04-25T03:28:42.928Z,11.28
2023-04-25T03:31:44.502Z,11.27
2023-04-25T03:34:46.240Z,11.21
2023-04-25T03:37:47.838Z,11.21
2023-04-25T03:40:55.095Z,11.21
2023-04-25T03:44:07.573Z,11.23
2023-04-25T03:47:09.107Z,11.13
2023-04-25T03:50:11.228Z,11.07
2023-04-25T03:53:12.751Z,11.03
2023-04-25T03:56:32.705Z,10.95
2023-04-25T03:59:41.618Z,10.83
2023-04-25T04:02:46.195Z,10.67
2023-04-25T04:05:48.486Z,10.55
2023-04-25T04:08:50.066Z,10.40
2023-04-25T04:11:51.919Z,10.36
2023-04-25T04:14:53.368Z,10.39
2023-04-25T04:17:55.778Z,10.40
2023-04-25T04:20:59.032Z,10.36
2023-04-25T04:24:02.821Z,10.32
2023-04-25T04:27:08.526Z,10.35
2023-04-25T04:30:30.494Z,10.44
2023-04-25T04:33:33.983Z,10.45
2023-04-25T04:36:38.313Z,10.41
2023-04-25T04:39:39.884Z,10.47
2023-04-25T04:42:59.180Z,10.59
2023-04-25T04:46:13.668Z,10.67
2023-04-25T04:49:50.954Z,10.73
2023-04-25T04:53:05.664Z,10.81
2023-04-25T04:56:26.266Z,10.87
2023-04-25T04:59:43.442Z,11.00
2023-04-25T05:03:14.150Z,11.03
2023-04-25T05:06:39.804Z,11.12
2023-04-25T05:09:53.889Z,11.16
2023-04-25T05:13:14.989Z,11.26
2023-04-25T05:16:28.326Z,11.30
2023-04-25T05:19:49.621Z,11.25
2023-04-25T05:23:13.983Z,11.29
2023-04-25T05:26:18.163Z,11.35
2023-04-25T05:29:27.886Z,11.27
2023-04-25T05:32:41.449Z,11.33
2023-04-25T05:35:43.410Z,11.13
2023-04-25T05:38:46.468Z,11.03
2023-04-25T05:41:56.737Z,10.78
2023-04-25T05:45:18.994Z,10.98
2023-04-25T05:48:29.532Z,11.06
2023-04-25T05:51:40.470Z,10.98
2023-04-25T05:55:03.208Z,11.02
2023-04-25T05:58:08.001Z,11.12
2023-04-25T06:01:16.005Z,11.20
2023-04-25T06:04:18.413Z,11.22
2023-04-25T06:07:21.188Z,11.06
2023-04-25T06:10:23.680Z,10.86
2023-04-25T06:13:25.440Z,10.71
2023-04-25T06:16:27.216Z,10.33
2023-04-25T06:19:29.177Z,10.40
2023-04-25T06:22:30.691Z,10.58
2023-04-25T06:25:32.182Z,10.70
2023-04-25T06:28:34.855Z,10.71
2023-04-25T06:31:36.493Z,10.83
2023-04-25T06:34:38.173Z,10.80
2023-04-25T06:37:41.562Z,10.83
2023-04-25T06:40:43.228Z,10.84
2023-04-25T06:43:45.612Z,10.94
2023-04-25T06:46:59.071Z,10.97
2023-04-25T06:50:00.762Z,10.94
2023-04-25T06:53:03.103Z,11.01
2023-04-25T06:56:06.251Z,11.24
2023-04-25T06:59:26.839Z,11.23
2023-04-25T07:02:28.493Z,11.24
2023-04-25T07:05:30.249Z,11.24
2023-04-25T07:08:32.452Z,11.26
2023-04-25T07:11:34.431Z,11.24
2023-04-25T07:14:35.997Z,11.02
2023-04-25T07:17:37.729Z,10.86
2023-04-25T07:20:39.392Z,10.86
2023-04-25T07:23:42.083Z,10.74
2023-04-25T07:26:48.788Z,10.76
2023-04-25T07:30:07.341Z,10.71
2023-04-25T07:33:08.913Z,10.80
2023-04-25T07:36:10.348Z,10.91
2023-04-25T07:39:11.860Z,10.71
2023-04-25T07:42:14.161Z,10.77
2023-04-25T07:45:18.575Z,10.87
2023-04-25T07:48:20.730Z,10.83
2023-04-25T07:51:23.400Z,10.75
2023-04-25T07:54:27.299Z,10.56
2023-04-25T07:57:34.923Z,10.67
2023-04-25T08:00:37.539Z,10.78
2023-04-25T08:03:58.419Z,10.86
2023-04-25T08:07:17.193Z,10.93
2023-04-25T08:10:26.675Z,11.00
2023-04-25T08:13:28.408Z,10.91
2023-04-25T08:16:31.904Z,11.11
2023-04-25T08:19:33.769Z,11.29
2023-04-25T08:22:36.516Z,11.18
2023-04-25T08:25:57.975Z,11.21
2023-04-25T08:29:02.577Z,11.30
2023-04-25T08:32:04.219Z,11.37
2023-04-25T08:35:07.662Z,11.43
2023-04-25T08:38:09.342Z,11.23
2023-04-25T08:41:12.764Z,11.02
2023-04-25T08:44:14.335Z,11.14
2023-04-25T08:47:15.998Z,11.16
2023-04-25T08:50:23.759Z,11.10
2023-04-25T08:53:28.452Z,11.05
2023-04-25T08:56:35.428Z,11.26
2023-04-25T08:59:40.394Z,11.34
2023-04-25T09:02:43.425Z,11.34
2023-04-25T09:05:45.658Z,11.44
2023-04-25T09:08:51.094Z,11.27
2023-04-25T09:11:55.188Z,11.21
2023-04-25T09:15:10.165Z,11.29
2023-04-25T09:18:33.700Z,11.53
2023-04-25T09:21:36.456Z,11.77
2023-04-25T09:24:38.030Z,11.76
2023-04-25T09:27:53.207Z,11.91
2023-04-25T09:31:00.451Z,13.16
2023-04-25T09:34:07.917Z,13.76
2023-04-25T09:37:21.401Z,14.01
2023-04-25T09:40:43.075Z,14.02
2023-04-25T09:43:57.992Z,14.04
2023-04-25T09:47:03.821Z,13.97
2023-04-25T09:50:17.852Z,14.04
2023-04-25T09:53:22.873Z,14.28
2023-04-25T09:56:39.374Z,14.21
2023-04-25T09:59:46.697Z,14.26
2023-04-25T10:02:49.770Z,14.25
2023-04-25T10:06:28.487Z,14.36
2023-04-25T10:09:33.240Z,14.36
2023-04-25T10:12:35.215Z,14.35
2023-04-25T10:15:40.330Z,14.70
2023-04-25T10:18:42.046Z,14.66
2023-04-25T10:21:53.509Z,14.69
2023-04-25T10:24:57.356Z,15.13
2023-04-25T10:28:00.850Z,15.15
2023-04-25T10:31:08.620Z,15.12
2023-04-25T10:34:10.589Z,15.02
2023-04-25T10:37:14.392Z,15.09
2023-04-25T10:40:22.934Z,14.76
2023-04-25T10:43:39.632Z,14.19
2023-04-25T10:46:41.478Z,13.83
2023-04-25T10:49:43.698Z,13.67
2023-04-25T10:52:45.550Z,13.58
2023-04-25T10:55:54.140Z,13.59
2023-04-25T10:59:07.445Z,13.61
2023-04-25T11:02:14.296Z,13.81
2023-04-25T11:05:43.991Z,14.48
2023-04-25T11:08:56.815Z,15.69
2023-04-25T11:11:59.653Z,16.05
2023-04-25T11:15:05.897Z,16.30
2023-04-25T11:18:09.739Z,17.91
2023-04-25T11:21:12.835Z,17.85
2023-04-25T11:24:14.387Z,18.08
2023-04-25T11:27:15.884Z,17.90
2023-04-25T11:30:17.880Z,17.88
2023-04-25T11:33:24.480Z,17.74
2023-04-25T11:36:27.011Z,17.17
2023-04-25T11:39:29.383Z,18.06
2023-04-25T11:42:34.170Z,17.93
2023-04-25T11:45:38.071Z,17.80
2023-04-25T11:48:43.704Z,17.67
2023-04-25T11:51:47.484Z,17.73
2023-04-25T11:54:49.081Z,17.49
2023-04-25T11:57:51.404Z,16.77
2023-04-25T12:00:53.087Z,15.33
2023-04-25T12:03:54.902Z,15.44
2023-04-25T12:06:56.633Z,15.01
2023-04-25T12:09:58.220Z,14.52
2023-04-25T12:12:59.715Z,14.17
2023-04-25T12:16:01.440Z,13.77
2023-04-25T12:19:03.632Z,13.79
2023-04-25T12:22:21.120Z,13.69
2023-04-25T12:25:43.023Z,14.41
2023-04-25T12:28:48.170Z,16.19
2023-04-25T12:31:51.095Z,17.04
2023-04-25T12:34:52.931Z,17.61
2023-04-25T12:37:54.418Z,18.30
2023-04-25T12:40:56.154Z,18.76
2023-04-25T12:43:57.805Z,18.28
2023-04-25T12:47:00.842Z,19.02
2023-04-25T12:50:02.587Z,18.97
2023-04-25T12:53:04.216Z,18.95
2023-04-25T12:56:06.531Z,19.36
2023-04-25T12:59:07.995Z,19.24
2023-04-25T13:02:09.606Z,18.92
2023-04-25T13:05:12.126Z,19.34
2023-04-25T13:08:13.683Z,19.72
2023-04-25T13:11:18.249Z,19.84
2023-04-25T13:14:19.750Z,20.24
2023-04-25T13:17:21.338Z,20.88
2023-04-25T13:20:23.451Z,21.12
2023-04-25T13:23:27.507Z,20.88
2023-04-25T13:26:29.016Z,20.50
2023-04-25T13:29:30.494Z,19.91
2023-04-25T13:32:32.016Z,19.40
2023-04-25T13:35:35.610Z,18.86
2023-04-25T13:38:37.221Z,18.09
2023-04-25T13:41:38.695Z,17.46
2023-04-25T13:44:40.301Z,16.02
2023-04-25T13:47:41.790Z,14.83
2023-04-25T13:50:43.369Z,14.15
2023-04-25T13:53:46.337Z,14.25
2023-04-25T13:56:47.901Z,14.64
2023-04-25T13:59:49.434Z,15.06
2023-04-25T14:02:51.403Z,15.44
2023-04-25T14:05:53.010Z,15.67
2023-04-25T14:08:55.358Z,16.62
2023-04-25T14:11:57.516Z,19.48
2023-04-25T14:14:59.071Z,20.59
2023-04-25T14:18:01.345Z,21.40
2023-04-25T14:21:02.972Z,21.52
2023-04-25T14:24:06.785Z,21.39
2023-04-25T14:27:08.652Z,20.90
2023-04-25T14:30:10.789Z,21.08
2023-04-25T14:33:12.562Z,22.25
2023-04-25T14:36:15.198Z,21.07
2023-04-25T14:39:17.537Z,21.46
2023-04-25T14:42:19.068Z,20.86
2023-04-25T14:45:20.748Z,19.07
2023-04-25T14:48:22.384Z,17.75
2023-04-25T14:51:24.062Z,16.99
2023-04-25T14:54:26.494Z,16.67
2023-04-25T14:57:28.205Z,16.43
2023-04-25T15:00:31.351Z,16.38
2023-04-25T15:03:33.557Z,16.40
2023-04-25T15:06:35.184Z,16.28
2023-04-25T15:09:36.682Z,16.24
2023-04-25T15:12:38.619Z,16.23
2023-04-25T15:15:40.392Z,15.95
2023-04-25T15:18:41.996Z,15.64
2023-04-25T15:21:43.537Z,14.73
2023-04-25T15:24:45.070Z,14.27
2023-04-25T15:27:49.169Z,14.23
2023-04-25T15:30:51.525Z,14.27
2023-04-25T15:33:53.102Z,14.00
2023-04-25T15:36:54.752Z,14.08
2023-04-25T15:40:11.742Z,13.97
2023-04-25T15:43:15.967Z,13.99
2023-04-25T15:46:17.798Z,13.92
2023-04-25T15:49:21.568Z,14.03
2023-04-25T15:52:23.042Z,14.14
2023-04-25T15:55:26.880Z,14.24
2023-04-25T15:58:28.425Z,14.50
2023-04-25T16:01:31.227Z,14.28
2023-04-25T16:04:35.595Z,14.28
2023-04-25T16:07:38.174Z,14.30
2023-04-25T16:10:39.766Z,14.49
2023-04-25T16:13:41.507Z,14.40
2023-04-25T16:16:44.751Z,14.40
2023-04-25T16:19:46.388Z,14.46
2023-04-25T16:22:48.012Z,14.51
2023-04-25T16:25:50.734Z,14.61
2023-04-25T16:28:52.570Z,14.68
2023-04-25T16:31:54.203Z,14.53
2023-04-25T16:34:57.497Z,14.30
2023-04-25T16:38:01.025Z,14.03
2023-04-25T16:41:02.725Z,13.95
2023-04-25T16:44:06.701Z,13.87
2023-04-25T16:47:08.330Z,13.80
2023-04-25T16:50:10.153Z,13.70
2023-04-25T16:53:11.983Z,13.53
2023-04-25T16:56:13.507Z,13.40
2023-04-25T16:59:14.936Z,13.36
2023-04-25T17:02:17.171Z,13.38
2023-04-25T17:05:18.832Z,13.38
2023-04-25T17:08:20.351Z,13.31
2023-04-25T17:11:21.892Z,13.25
2023-04-25T17:14:23.424Z,13.21
2023-04-25T17:17:26.571Z,13.12
2023-04-25T17:20:28.105Z,13.14
2023-04-25T17:23:32.297Z,13.13
2023-04-25T17:26:33.750Z,13.16
2023-04-25T17:29:35.621Z,13.10
2023-04-25T17:32:37.166Z,13.05
2023-04-25T17:35:38.729Z,12.82
2023-04-25T17:38:40.394Z,12.80
2023-04-25T17:41:41.875Z,12.84
2023-04-25T17:44:43.396Z,12.74
2023-04-25T17:47:45.346Z,12.63
2023-04-25T17:50:46.899Z,12.47
2023-04-25T17:53:48.486Z,12.42
2023-04-25T17:56:50.800Z,12.48
2023-04-25T17:59:53.466Z,12.43
2023-04-25T18:02:55.136Z,12.33
2023-04-25T18:05:56.703Z,12.26
2023-04-25T18:08:58.629Z,12.36
2023-04-25T18:12:01.274Z,12.43
2023-04-25T18:15:06.772Z,12.44
2023-04-25T18:18:15.108Z,12.37
2023-04-25T18:21:16.876Z,12.35
2023-04-25T18:24:18.526Z,12.35
2023-04-25T18:27:20.431Z,12.36
2023-04-25T18:30:22.026Z,12.32
2023-04-25T18:33:23.616Z,12.34
2023-04-25T18:36:25.106Z,12.41
2023-04-25T18:39:27.098Z,12.41
2023-04-25T18:42:29.003Z,12.26
2023-04-25T18:45:30.608Z,12.10
2023-04-25T18:48:32.085Z,12.08
2023-04-25T18:51:33.660Z,12.16
2023-04-25T18:54:35.178Z,12.17
2023-04-25T18:57:37.978Z,12.21
2023-04-25T19:00:40.020Z,12.26
2023-04-25T19:03:41.933Z,12.31
2023-04-25T19:06:49.247Z,12.29
2023-04-25T19:09:50.770Z,12.29
2023-04-25T19:12:52.625Z,12.29
2023-04-25T19:15:54.297Z,12.29
2023-04-25T19:18:56.806Z,12.26
2023-04-25T19:21:58.910Z,12.31
2023-04-25T19:25:10.072Z,12.34
2023-04-25T19:28:12.888Z,12.27
2023-04-25T19:31:14.479Z,12.12
2023-04-25T19:34:16.155Z,12.04
2023-04-25T19:37:17.663Z,12.13
2023-04-25T19:40:21.136Z,12.21
2023-04-25T19:43:22.637Z,12.19
2023-04-25T19:46:24.856Z,12.05
2023-04-25T19:49:27.095Z,11.97
2023-04-25T19:52:28.652Z,11.93
2023-04-25T19:55:30.156Z,11.97
2023-04-25T19:58:32.216Z,11.87
2023-04-25T20:01:33.826Z,11.75
2023-04-25T20:04:35.329Z,11.77
2023-04-25T20:07:36.974Z,11.78
2023-04-25T20:10:38.489Z,11.79
2023-04-25T20:13:40.029Z,11.82
2023-04-25T20:16:41.800Z,11.78
2023-04-25T20:19:43.540Z,11.80
2023-04-25T20:22:45.135Z,11.84
2023-04-25T20:25:46.731Z,11.78
2023-04-25T20:28:48.243Z,11.78
2023-04-25T20:31:50.882Z,11.79
2023-04-25T20:34:52.464Z,11.82
2023-04-25T20:37:54.015Z,11.82
2023-04-25T20:40:56.504Z,11.83
2023-04-25T20:43:58.186Z,11.85
2023-04-25T20:46:59.988Z,11.91
2023-04-25T20:50:03.801Z,11.91
2023-04-25T20:53:05.674Z,11.90
2023-04-25T20:56:07.202Z,11.86
2023-04-25T20:59:09.168Z,11.87
2023-04-25T21:02:12.388Z,11.78
2023-04-25T21:05:14.059Z,11.70
2023-04-25T21:08:15.984Z,11.70
2023-04-25T21:11:19.413Z,11.67
2023-04-25T21:14:21.542Z,11.35
2023-04-25T21:17:23.127Z,11.15
2023-04-25T21:20:24.619Z,11.17
2023-04-25T21:23:26.068Z,11.20
2023-04-25T21:26:27.636Z,11.31
2023-04-25T21:29:29.121Z,11.33
2023-04-25T21:32:30.624Z,11.17
2023-04-25T21:35:32.229Z,11.08
2023-04-25T21:38:33.809Z,11.08
2023-04-25T21:41:37.439Z,11.07
2023-04-25T21:44:39.930Z,10.97
2023-04-25T21:47:41.984Z,10.86
2023-04-25T21:50:43.565Z,10.84
2023-04-25T21:53:47.598Z,10.67
2023-04-25T21:56:49.589Z,10.48
2023-04-25T21:59:51.142Z,10.37
2023-04-25T22:02:56.091Z,10.54
2023-04-25T22:05:58.848Z,10.68
2023-04-25T22:09:00.325Z,10.70
2023-04-25T22:12:03.533Z,10.76
2023-04-25T22:15:05.630Z,10.67
2023-04-25T22:18:08.052Z,10.60
2023-04-25T22:21:10.151Z,10.57
2023-04-25T22:24:11.669Z,10.55
2023-04-25T22:27:13.135Z,10.62
2023-04-25T22:30:14.849Z,10.46
2023-04-25T22:33:17.668Z,10.45
2023-04-25T22:36:19.564Z,10.41
2023-04-25T22:39:21.089Z,10.45
2023-04-25T22:42:22.614Z,10.44
2023-04-25T22:45:24.504Z,10.37
2023-04-25T22:48:26.005Z,10.27
2023-04-25T22:51:27.443Z,10.16
2023-04-25T22:54:28.896Z,10.00
2023-04-25T22:57:31.308Z,9.81
2023-04-25T23:00:34.392Z,9.77
2023-04-25T23:03:36.379Z,9.80
2023-04-25T23:06:38.631Z,9.85
2023-04-25T23:09:41.744Z,9.93
2023-04-25T23:12:43.864Z,9.87
2023-04-25T23:15:45.320Z,9.90
2023-04-25T23:18:47.005Z,9.91
2023-04-25T23:21:48.888Z,9.97
2023-04-25T23:24:51.126Z,10.03
2023-04-25T23:27:52.980Z,10.02
2023-04-25T23:30:54.517Z,10.00
2023-04-25T23:33:56.052Z,9.94
2023-04-25T23:36:58.080Z,9.92
2023-04-25T23:39:59.854Z,9.95
2023-04-25T23:43:02.386Z,9.99
2023-04-25T23:46:04.278Z,10.00
2023-04-25T23:49:05.738Z,10.02
2023-04-25T23:52:07.189Z,9.93
2023-04-25T23:55:09.824Z,9.87
2023-04-25T23:58:11.430Z,9.75
